createdAt,value
2022-09-29T00:00:22.890Z,97378.22
2022-09-29T00:03:24.776Z,97376.03
2022-09-29T00:06:26.427Z,97390.75
2022-09-29T00:09:28.040Z,97377.91
2022-09-29T00:12:29.587Z,97376.81
2022-09-29T00:15:31.212Z,97387.47
2022-09-29T00:18:33.126Z,97389.03
2022-09-29T00:21:34.685Z,97385.13
2022-09-29T00:24:36.242Z,97385.91
2022-09-29T00:27:37.965Z,97392.97
2022-09-29T00:30:39.530Z,97396.25
2022-09-29T00:33:41.291Z,97398.91
2022-09-29T00:36:42.806Z,97396.25
2022-09-29T00:39:44.368Z,97404.72
2022-09-29T00:42:45.935Z,97402.38
2022-09-29T00:45:47.635Z,97397.38
2022-09-29T00:48:49.227Z,97397.03
2022-09-29T00:51:58.405Z,97400.03
2022-09-29T00:55:06.099Z,97401.75
2022-09-29T00:58:09.266Z,97401.09
2022-09-29T01:01:11.633Z,97396.88
2022-09-29T01:04:14.551Z,97396.44
2022-09-29T01:07:16.143Z,97402.97
2022-09-29T01:10:17.798Z,97404.25
2022-09-29T01:13:19.487Z,97408.97
2022-09-29T01:16:21.097Z,97410.38
2022-09-29T01:19:41.115Z,97413.97
2022-09-29T01:23:01.138Z,97418.19
2022-09-29T01:26:21.519Z,97415.06
2022-09-29T01:29:41.581Z,97416.03
2022-09-29T01:32:58.262Z,97418.97
2022-09-29T01:36:02.611Z,97423.69
2022-09-29T01:39:13.341Z,97428.41
2022-09-29T01:42:14.873Z,97426.97
2022-09-29T01:45:18.533Z,97442.00
2022-09-29T01:48:22.625Z,97444.22
2022-09-29T01:51:56.790Z,97435.88
2022-09-29T01:54:59.724Z,97445.47
2022-09-29T01:58:02.392Z,97443.59
2022-09-29T02:01:09.834Z,97450.31
2022-09-29T02:04:13.658Z,97457.06
2022-09-29T02:07:17.255Z,97447.81
2022-09-29T02:10:29.930Z,97459.72
2022-09-29T02:13:46.837Z,97468.81
2022-09-29T02:16:49.218Z,97467.88
2022-09-29T02:19:51.486Z,97459.56
2022-09-29T02:22:53.047Z,97468.50
2022-09-29T02:25:54.629Z,97469.31
2022-09-29T02:28:56.245Z,97460.53
2022-09-29T02:32:01.424Z,97473.06
2022-09-29T02:35:07.008Z,97476.69
2022-09-29T02:38:14.932Z,97476.97
2022-09-29T02:41:26.769Z,97480.28
2022-09-29T02:44:57.717Z,97482.78
2022-09-29T02:47:59.169Z,97492.16
2022-09-29T02:51:07.683Z,97487.00
2022-09-29T02:54:35.429Z,97488.69
2022-09-29T02:57:36.936Z,97492.47
2022-09-29T03:00:38.535Z,97499.53
2022-09-29T03:03:40.237Z,97495.44
2022-09-29T03:06:41.842Z,97486.69
2022-09-29T03:09:44.570Z,97501.88
2022-09-29T03:12:47.354Z,97505.00
2022-09-29T03:15:49.021Z,97506.56
2022-09-29T03:18:50.928Z,97513.94
2022-09-29T03:21:52.587Z,97517.91
2022-09-29T03:24:54.121Z,97519.75
2022-09-29T03:27:55.648Z,97529.03
2022-09-29T03:30:57.191Z,97532.81
2022-09-29T03:33:58.750Z,97535.75
2022-09-29T03:37:00.385Z,97543.47
2022-09-29T03:40:02.319Z,97536.41
2022-09-29T03:43:03.898Z,97547.06
2022-09-29T03:46:06.106Z,97553.97
2022-09-29T03:49:10.020Z,97552.41
2022-09-29T03:52:11.869Z,97547.06
2022-09-29T03:55:13.418Z,97560.41
2022-09-29T03:58:15.358Z,97558.97
2022-09-29T04:01:16.979Z,97564.94
2022-09-29T04:04:18.604Z,97567.91
2022-09-29T04:07:20.129Z,97574.50
2022-09-29T04:10:21.954Z,97583.28
2022-09-29T04:13:23.496Z,97579.06
2022-09-29T04:16:25.102Z,97583.91
2022-09-29T04:19:26.701Z,97584.41
2022-09-29T04:22:28.281Z,97592.69
2022-09-29T04:25:29.912Z,97590.34
2022-09-29T04:28:32.158Z,97595.06
2022-09-29T04:31:33.796Z,97600.06
2022-09-29T04:34:35.408Z,97604.47
2022-09-29T04:37:37.065Z,97606.34
2022-09-29T04:40:38.827Z,97608.41
2022-09-29T04:43:40.393Z,97613.25
2022-09-29T04:46:42.429Z,97625.63
2022-09-29T04:49:43.972Z,97632.25
2022-09-29T04:52:45.566Z,97638.03
2022-09-29T04:55:47.122Z,97632.25
2022-09-29T04:58:48.729Z,97639.63
2022-09-29T05:01:50.340Z,97647.63
2022-09-29T05:04:51.964Z,97648.69
2022-09-29T05:07:53.524Z,97648.06
2022-09-29T05:10:55.085Z,97651.06
2022-09-29T05:13:56.786Z,97666.28
2022-09-29T05:16:58.465Z,97659.34
2022-09-29T05:20:00.086Z,97658.56
2022-09-29T05:23:01.675Z,97668.47
2022-09-29T05:26:04.091Z,97665.19
2022-09-29T05:29:05.647Z,97665.03
2022-09-29T05:32:07.207Z,97671.66
2022-09-29T05:35:09.077Z,97673.84
2022-09-29T05:38:10.606Z,97675.72
2022-09-29T05:41:12.586Z,97683.44
2022-09-29T05:44:14.143Z,97684.22
2022-09-29T05:47:15.737Z,97682.00
2022-09-29T05:50:17.286Z,97699.44
2022-09-29T05:53:18.858Z,97701.97
2022-09-29T05:56:21.524Z,97700.84
2022-09-29T05:59:23.299Z,97703.69
2022-09-29T06:02:24.879Z,97714.03
2022-09-29T06:05:26.984Z,97716.53
2022-09-29T06:08:28.546Z,97713.25
2022-09-29T06:11:33.632Z,97718.25
2022-09-29T06:14:35.183Z,97733.66
2022-09-29T06:17:36.931Z,97731.47
2022-09-29T06:20:38.538Z,97730.53
2022-09-29T06:23:40.442Z,97737.09
2022-09-29T06:26:41.977Z,97735.53
2022-09-29T06:29:43.526Z,97732.53
2022-09-29T06:32:45.069Z,97739.47
2022-09-29T06:36:05.778Z,97742.44
2022-09-29T06:39:07.977Z,97751.22
2022-09-29T06:42:09.526Z,97755.78
2022-09-29T06:45:11.113Z,97759.09
2022-09-29T06:48:12.624Z,97774.31
2022-09-29T06:51:14.918Z,97775.22
2022-09-29T06:54:17.942Z,97779.34
2022-09-29T06:57:19.465Z,97783.75
2022-09-29T07:00:21.023Z,97791.59
2022-09-29T07:03:22.574Z,97791.59
2022-09-29T07:06:24.131Z,97792.72
2022-09-29T07:09:25.666Z,97785.97
2022-09-29T07:12:27.144Z,97797.13
2022-09-29T07:15:31.869Z,97800.25
2022-09-29T07:18:37.821Z,97795.72
2022-09-29T07:21:39.417Z,97797.13
2022-09-29T07:24:40.934Z,97803.88
2022-09-29T07:27:42.483Z,97802.16
2022-09-29T07:30:44.552Z,97811.41
2022-09-29T07:33:47.395Z,97825.56
2022-09-29T07:36:49.123Z,97818.78
2022-09-29T07:39:50.844Z,97826.34
2022-09-29T07:42:52.365Z,97821.59
2022-09-29T07:45:53.895Z,97826.47
2022-09-29T07:48:55.448Z,97832.78
2022-09-29T07:51:56.949Z,97839.50
2022-09-29T07:54:58.521Z,97846.44
2022-09-29T07:58:01.350Z,97856.03
2022-09-29T08:01:05.376Z,97859.69
2022-09-29T08:04:06.970Z,97874.59
2022-09-29T08:07:08.681Z,97863.75
2022-09-29T08:10:17.081Z,97877.56
2022-09-29T08:13:19.354Z,97885.44
2022-09-29T08:16:21.041Z,97889.19
2022-09-29T08:19:22.705Z,97889.06
2022-09-29T08:22:24.247Z,97911.38
2022-09-29T08:25:26.258Z,97908.72
2022-09-29T08:28:31.908Z,97922.38
2022-09-29T08:31:34.336Z,97928.38
2022-09-29T08:34:36.681Z,97926.16
2022-09-29T08:37:38.906Z,97928.66
2022-09-29T08:40:40.518Z,97925.19
2022-09-29T08:43:42.540Z,97935.88
2022-09-29T08:47:03.177Z,97947.22
2022-09-29T08:50:12.654Z,97949.75
2022-09-29T08:53:25.805Z,97944.84
2022-09-29T08:56:29.449Z,97959.50
2022-09-29T08:59:31.339Z,97958.06
2022-09-29T09:02:56.324Z,97955.88
2022-09-29T09:06:11.149Z,97965.94
2022-09-29T09:09:19.002Z,97971.00
2022-09-29T09:12:20.541Z,97975.69
2022-09-29T09:15:25.129Z,97974.91
2022-09-29T09:18:47.802Z,97978.84
2022-09-29T09:21:51.749Z,97977.59
2022-09-29T09:24:56.865Z,97981.66
2022-09-29T09:28:24.464Z,97992.06
2022-09-29T09:31:46.197Z,97994.91
2022-09-29T09:34:56.619Z,97995.66
2022-09-29T09:38:04.690Z,97994.03
2022-09-29T09:41:06.521Z,98000.97
2022-09-29T09:44:13.833Z,98016.09
2022-09-29T09:47:23.697Z,98019.69
2022-09-29T09:50:25.410Z,98025.31
2022-09-29T09:53:33.499Z,98032.16
2022-09-29T09:56:36.091Z,98018.75
2022-09-29T09:59:56.522Z,98022.75
2022-09-29T10:03:01.550Z,98039.41
2022-09-29T10:06:03.686Z,98046.81
2022-09-29T10:09:05.267Z,98058.03
2022-09-29T10:12:08.265Z,98055.53
2022-09-29T10:15:28.931Z,98052.69
2022-09-29T10:18:30.588Z,98053.16
2022-09-29T10:21:32.146Z,98043.06
2022-09-29T10:24:33.750Z,98043.66
2022-09-29T10:27:35.379Z,98043.50
2022-09-29T10:30:36.975Z,98049.81
2022-09-29T10:33:38.538Z,98053.63
2022-09-29T10:36:49.209Z,98056.31
2022-09-29T10:39:51.033Z,98057.44
2022-09-29T10:42:53.499Z,98060.28
2022-09-29T10:45:58.650Z,98061.06
2022-09-29T10:49:10.018Z,98067.38
2022-09-29T10:52:25.231Z,98064.66
2022-09-29T10:55:27.705Z,98078.22
2022-09-29T10:58:58.518Z,98077.03
2022-09-29T11:01:55.859Z,98080.66
2022-09-29T11:04:58.616Z,98074.97
2022-09-29T11:08:00.202Z,98081.78
2022-09-29T11:11:04.802Z,98091.50
2022-09-29T11:14:06.538Z,98083.75
2022-09-29T11:17:31.453Z,98088.53
2022-09-29T11:20:34.242Z,98093.06
2022-09-29T11:23:56.034Z,98091.72
2022-09-29T11:27:16.315Z,98091.38
2022-09-29T11:30:21.175Z,98098.75
2022-09-29T11:33:22.685Z,98093.53
2022-09-29T11:36:27.472Z,98106.44
2022-09-29T11:39:48.119Z,98101.25
2022-09-29T11:42:55.535Z,98099.66
2022-09-29T11:46:15.630Z,98105.09
2022-09-29T11:49:27.930Z,98100.16
2022-09-29T11:52:29.423Z,98108.66
2022-09-29T11:55:49.566Z,98100.13
2022-09-29T11:58:57.861Z,98113.59
2022-09-29T12:02:08.515Z,98115.78
2022-09-29T12:05:23.298Z,98111.50
2022-09-29T12:08:24.816Z,98118.06
2022-09-29T12:12:11.569Z,98119.75
2022-09-29T12:15:41.133Z,98113.81
2022-09-29T12:18:50.146Z,98114.19
2022-09-29T12:21:52.508Z,98129.34
2022-09-29T12:24:54.857Z,98128.13
2022-09-29T12:28:16.627Z,98129.06
2022-09-29T12:31:23.130Z,98123.50
2022-09-29T12:34:38.787Z,98131.84
2022-09-29T12:37:48.461Z,98127.81
2022-09-29T12:40:58.080Z,98119.75
2022-09-29T12:44:16.267Z,98128.94
2022-09-29T12:47:36.766Z,98134.41
2022-09-29T12:50:57.227Z,98129.78
2022-09-29T12:53:58.826Z,98129.84
2022-09-29T12:57:09.665Z,98131.09
2022-09-29T13:00:14.607Z,98137.31
2022-09-29T13:03:16.136Z,98141.53
2022-09-29T13:06:20.478Z,98136.25
2022-09-29T13:09:31.674Z,98146.09
2022-09-29T13:12:56.664Z,98151.50
2022-09-29T13:16:01.849Z,98150.22
2022-09-29T13:19:22.884Z,98144.13
2022-09-29T13:22:34.021Z,98137.75
2022-09-29T13:25:41.632Z,98139.97
2022-09-29T13:28:44.489Z,98141.00
2022-09-29T13:31:46.565Z,98144.34
2022-09-29T13:34:49.768Z,98150.09
2022-09-29T13:38:02.105Z,98147.16
2022-09-29T13:41:15.307Z,98153.41
2022-09-29T13:44:16.910Z,98150.72
2022-09-29T13:47:31.802Z,98151.03
2022-09-29T13:50:45.663Z,98161.25
2022-09-29T13:53:47.426Z,98160.41
2022-09-29T13:56:49.796Z,98161.09
2022-09-29T13:59:57.174Z,98168.50
2022-09-29T14:03:05.514Z,98173.19
2022-09-29T14:06:39.641Z,98172.28
2022-09-29T14:09:44.160Z,98179.72
2022-09-29T14:12:50.256Z,98176.47
2022-09-29T14:15:54.592Z,98170.31
2022-09-29T14:19:07.767Z,98180.34
2022-09-29T14:22:28.136Z,98178.66
2022-09-29T14:25:31.295Z,98181.28
2022-09-29T14:28:35.377Z,98180.78
2022-09-29T14:31:36.911Z,98188.44
2022-09-29T14:34:39.329Z,98197.72
2022-09-29T14:37:40.883Z,98199.59
2022-09-29T14:41:00.702Z,98192.72
2022-09-29T14:44:08.914Z,98189.84
2022-09-29T14:47:35.218Z,98189.97
2022-09-29T14:51:12.242Z,98192.34
2022-09-29T14:54:32.922Z,98186.56
2022-09-29T14:57:46.678Z,98203.00
2022-09-29T15:00:51.617Z,98197.56
2022-09-29T15:03:53.783Z,98206.53
2022-09-29T15:06:55.349Z,98206.91
2022-09-29T15:09:58.185Z,98208.25
2022-09-29T15:13:16.374Z,98210.25
2022-09-29T15:16:21.240Z,98204.66
2022-09-29T15:19:23.661Z,98210.25
2022-09-29T15:22:45.552Z,98205.59
2022-09-29T15:25:47.280Z,98196.16
2022-09-29T15:28:49.451Z,98200.50
2022-09-29T15:31:50.953Z,98204.63
2022-09-29T15:34:56.028Z,98213.78
2022-09-29T15:38:18.212Z,98220.13
2022-09-29T15:41:20.566Z,98216.25
2022-09-29T15:44:22.265Z,98224.72
2022-09-29T15:47:28.385Z,98222.19
2022-09-29T15:50:35.691Z,98222.63
2022-09-29T15:53:39.141Z,98221.13
2022-09-29T15:56:58.904Z,98221.81
2022-09-29T16:00:03.613Z,98223.00
2022-09-29T16:03:30.258Z,98225.91
2022-09-29T16:06:32.624Z,98230.03
2022-09-29T16:09:34.197Z,98226.28
2022-09-29T16:12:39.459Z,98235.19
2022-09-29T16:15:45.045Z,98243.38
2022-09-29T16:18:47.094Z,98250.38
2022-09-29T16:21:56.149Z,98246.88
2022-09-29T16:25:16.502Z,98252.09
2022-09-29T16:28:25.185Z,98257.31
2022-09-29T16:31:27.528Z,98256.38
2022-09-29T16:34:30.285Z,98252.97
2022-09-29T16:37:31.803Z,98270.31
2022-09-29T16:40:33.734Z,98273.06
2022-09-29T16:43:35.341Z,98272.69
2022-09-29T16:46:49.190Z,98274.63
2022-09-29T16:49:54.205Z,98265.84
2022-09-29T16:52:55.864Z,98270.63
2022-09-29T16:56:01.279Z,98283.19
2022-09-29T16:59:08.706Z,98290.59
2022-09-29T17:02:10.572Z,98297.69
2022-09-29T17:05:12.130Z,98303.94
2022-09-29T17:08:16.509Z,98307.53
2022-09-29T17:11:18.131Z,98311.69
2022-09-29T17:14:21.513Z,98312.25
2022-09-29T17:17:23.686Z,98310.34
2022-09-29T17:20:29.967Z,98331.78
2022-09-29T17:23:44.128Z,98338.66
2022-09-29T17:27:04.523Z,98337.00
2022-09-29T17:30:06.326Z,98334.75
2022-09-29T17:33:09.790Z,98331.41
2022-09-29T17:36:12.567Z,98329.19
2022-09-29T17:39:14.125Z,98328.84
2022-09-29T17:42:15.633Z,98325.47
2022-09-29T17:45:19.097Z,98329.63
2022-09-29T17:48:20.608Z,98334.53
2022-09-29T17:51:22.166Z,98333.44
2022-09-29T17:54:27.131Z,98328.72
2022-09-29T17:57:29.036Z,98333.94
2022-09-29T18:00:40.227Z,98333.69
2022-09-29T18:03:42.287Z,98338.47
2022-09-29T18:06:44.543Z,98335.72
2022-09-29T18:09:47.248Z,98338.00
2022-09-29T18:12:48.999Z,98332.50
2022-09-29T18:15:50.764Z,98323.59
2022-09-29T18:18:58.000Z,98319.94
2022-09-29T18:22:01.339Z,98323.31
2022-09-29T18:25:03.272Z,98327.38
2022-09-29T18:28:04.817Z,98326.78
2022-09-29T18:31:12.267Z,98321.66
2022-09-29T18:34:18.142Z,98313.47
2022-09-29T18:37:19.791Z,98315.22
2022-09-29T18:40:22.220Z,98315.00
2022-09-29T18:43:25.991Z,98304.34
2022-09-29T18:46:29.883Z,98316.59
2022-09-29T18:49:31.639Z,98318.16
2022-09-29T18:52:34.206Z,98314.72
2022-09-29T18:55:35.771Z,98317.69
2022-09-29T18:58:38.161Z,98319.47
2022-09-29T19:01:39.959Z,98334.47
2022-09-29T19:04:41.744Z,98329.03
2022-09-29T19:07:43.769Z,98335.84
2022-09-29T19:10:49.070Z,98322.31
2022-09-29T19:13:52.485Z,98327.44
2022-09-29T19:16:55.154Z,98334.38
2022-09-29T19:20:00.514Z,98351.16
2022-09-29T19:23:05.674Z,98365.06
2022-09-29T19:26:11.464Z,98371.28
2022-09-29T19:29:13.026Z,98363.56
2022-09-29T19:32:14.620Z,98365.72
2022-09-29T19:35:17.116Z,98377.59
2022-09-29T19:38:18.852Z,98386.06
2022-09-29T19:41:21.813Z,98392.88
2022-09-29T19:44:23.425Z,98388.44
2022-09-29T19:47:25.102Z,98384.19
2022-09-29T19:50:45.559Z,98365.16
2022-09-29T19:53:49.499Z,98377.09
2022-09-29T19:56:52.392Z,98393.69
2022-09-29T19:59:54.237Z,98411.34
2022-09-29T20:02:55.862Z,98413.97
2022-09-29T20:06:01.223Z,98428.47
2022-09-29T20:09:03.797Z,98425.00
2022-09-29T20:12:05.358Z,98436.38
2022-09-29T20:15:07.410Z,98440.16
2022-09-29T20:18:08.904Z,98430.50
2022-09-29T20:21:11.895Z,98422.03
2022-09-29T20:24:14.574Z,98404.28
2022-09-29T20:27:16.189Z,98395.38
2022-09-29T20:30:20.725Z,98381.41
2022-09-29T20:33:23.522Z,98380.63
2022-09-29T20:36:25.341Z,98371.50
2022-09-29T20:39:26.883Z,98367.19
2022-09-29T20:42:28.714Z,98359.53
2022-09-29T20:45:30.213Z,98343.19
2022-09-29T20:48:32.223Z,98345.06
2022-09-29T20:51:37.234Z,98349.16
2022-09-29T20:54:39.691Z,98330.88
2022-09-29T20:57:46.027Z,98328.88
2022-09-29T21:00:47.901Z,98314.69
2022-09-29T21:03:59.301Z,98314.31
2022-09-29T21:07:00.944Z,98308.41
2022-09-29T21:10:03.955Z,98312.56
2022-09-29T21:13:05.451Z,98324.78
2022-09-29T21:16:07.094Z,98318.19
2022-09-29T21:19:09.239Z,98323.34
2022-09-29T21:22:11.484Z,98327.41
2022-09-29T21:25:13.223Z,98334.75
2022-09-29T21:28:14.771Z,98338.41
2022-09-29T21:31:17.523Z,98348.06
2022-09-29T21:34:19.234Z,98359.47
2022-09-29T21:37:20.925Z,98361.81
2022-09-29T21:40:24.998Z,98363.81
2022-09-29T21:43:26.867Z,98365.75
2022-09-29T21:46:29.647Z,98365.94
2022-09-29T21:49:31.186Z,98364.91
2022-09-29T21:52:36.007Z,98359.03
2022-09-29T21:55:41.004Z,98360.63
2022-09-29T21:58:42.998Z,98358.94
2022-09-29T22:01:45.153Z,98355.78
2022-09-29T22:04:46.849Z,98355.16
2022-09-29T22:07:48.466Z,98343.38
2022-09-29T22:10:50.657Z,98339.19
2022-09-29T22:13:52.703Z,98328.84
2022-09-29T22:16:54.510Z,98325.72
2022-09-29T22:19:56.400Z,98320.31
2022-09-29T22:22:57.910Z,98315.44
2022-09-29T22:26:00.670Z,98305.09
2022-09-29T22:29:02.775Z,98292.56
2022-09-29T22:32:04.318Z,98289.78
2022-09-29T22:35:05.923Z,98277.84
2022-09-29T22:38:08.190Z,98273.00
2022-09-29T22:41:10.746Z,98272.16
2022-09-29T22:44:12.476Z,98267.59
2022-09-29T22:47:13.982Z,98262.97
2022-09-29T22:50:15.464Z,98260.28
2022-09-29T22:53:16.985Z,98255.34
2022-09-29T22:56:19.558Z,98254.44
2022-09-29T22:59:21.898Z,98245.13
2022-09-29T23:02:23.517Z,98242.25
2022-09-29T23:05:25.100Z,98239.34
2022-09-29T23:08:26.746Z,98241.59
2022-09-29T23:11:30.065Z,98247.38
2022-09-29T23:14:31.655Z,98234.44
2022-09-29T23:17:33.322Z,98235.63
2022-09-29T23:20:34.854Z,98239.31
2022-09-29T23:23:36.576Z,98239.59
2022-09-29T23:26:38.120Z,98239.81
2022-09-29T23:29:39.689Z,98243.25
2022-09-29T23:32:41.328Z,98222.00
2022-09-29T23:35:42.887Z,98211.41
2022-09-29T23:39:02.870Z,98203.44
2022-09-29T23:42:04.501Z,98203.63
2022-09-29T23:45:06.224Z,98207.03
2022-09-29T23:48:07.790Z,98201.44
2022-09-29T23:51:09.385Z,98211.19
2022-09-29T23:54:12.095Z,98210.47
2022-09-29T23:57:13.648Z,98209.59
